createdAt,value
2023-03-05T00:01:45.674Z,4.71
2023-03-05T00:04:47.038Z,4.66
2023-03-05T00:07:48.864Z,4.70
2023-03-05T00:11:01.172Z,4.74
2023-03-05T00:14:04.369Z,4.71
2023-03-05T00:17:05.806Z,4.67
2023-03-05T00:20:08.035Z,4.66
2023-03-05T00:23:09.418Z,4.69
2023-03-05T00:26:11.912Z,4.69
2023-03-05T00:29:18.296Z,4.67
2023-03-05T00:32:19.792Z,4.65
2023-03-05T00:35:21.209Z,4.73
2023-03-05T00:38:23.111Z,4.76
2023-03-05T00:41:25.301Z,4.82
2023-03-05T00:44:26.694Z,4.80
2023-03-05T00:47:28.332Z,4.78
2023-03-05T00:50:29.714Z,4.78
2023-03-05T00:53:31.349Z,4.78
2023-03-05T00:56:32.848Z,4.77
2023-03-05T00:59:34.216Z,4.80
2023-03-05T01:02:35.658Z,4.81
2023-03-05T01:05:37.149Z,4.82
2023-03-05T01:08:39.413Z,4.77
2023-03-05T01:11:40.858Z,4.71
2023-03-05T01:14:42.258Z,4.70
2023-03-05T01:17:43.634Z,4.62
2023-03-05T01:20:45.270Z,4.56
2023-03-05T01:23:46.749Z,4.57
2023-03-05T01:26:49.288Z,4.62
2023-03-05T01:29:50.713Z,4.64
2023-03-05T01:32:52.845Z,4.66
2023-03-05T01:35:54.312Z,4.67
2023-03-05T01:38:55.759Z,4.65
2023-03-05T01:41:57.177Z,4.61
2023-03-05T01:45:02.653Z,4.71
2023-03-05T01:48:04.334Z,4.68
2023-03-05T01:51:06.185Z,4.68
2023-03-05T01:54:11.005Z,4.66
2023-03-05T01:57:20.867Z,4.70
2023-03-05T02:00:27.617Z,4.60
2023-03-05T02:03:29.039Z,4.59
2023-03-05T02:06:31.147Z,4.60
2023-03-05T02:09:32.605Z,4.57
2023-03-05T02:12:34.552Z,4.58
2023-03-05T02:15:37.631Z,4.58
2023-03-05T02:18:39.027Z,4.54
2023-03-05T02:21:47.246Z,4.53
2023-03-05T02:24:49.843Z,4.49
2023-03-05T02:28:42.303Z,4.50
2023-03-05T02:31:43.750Z,4.50
2023-03-05T02:34:45.160Z,4.48
2023-03-05T02:37:46.996Z,4.42
2023-03-05T02:40:48.541Z,4.39
2023-03-05T02:48:38.753Z,4.36
2023-03-05T02:51:40.573Z,4.34
2023-03-05T02:54:42.861Z,4.34
2023-03-05T02:57:44.408Z,4.34
2023-03-05T03:00:46.865Z,4.37
2023-03-05T03:03:48.323Z,4.38
2023-03-05T03:06:49.742Z,4.38
2023-03-05T03:09:51.253Z,4.44
2023-03-05T03:12:52.676Z,4.38
2023-03-05T03:16:09.408Z,4.36
2023-03-05T03:19:11.061Z,4.31
2023-03-05T03:22:14.326Z,4.30
2023-03-05T03:25:18.027Z,4.31
2023-03-05T03:28:19.986Z,4.35
2023-03-05T03:31:21.895Z,4.31
2023-03-05T03:34:23.499Z,4.31
2023-03-05T03:37:24.918Z,4.29
2023-03-05T03:40:26.370Z,4.19
2023-03-05T03:43:27.763Z,4.23
2023-03-05T03:46:29.268Z,4.13
2023-03-05T03:49:30.672Z,4.22
2023-03-05T03:52:32.050Z,4.26
2023-03-05T03:55:34.397Z,4.23
2023-03-05T03:58:35.849Z,4.22
2023-03-05T04:01:37.338Z,4.19
2023-03-05T04:04:38.787Z,4.24
2023-03-05T04:07:40.188Z,4.26
2023-03-05T04:10:41.704Z,4.29
2023-03-05T04:13:43.121Z,4.34
2023-03-05T04:16:44.524Z,4.37
2023-03-05T04:19:45.958Z,4.39
2023-03-05T04:22:47.340Z,4.35
2023-03-05T04:25:48.844Z,4.27
2023-03-05T04:28:50.256Z,4.18
2023-03-05T04:31:51.723Z,4.19
2023-03-05T04:34:53.124Z,4.23
2023-03-05T04:37:54.511Z,4.21
2023-03-05T04:40:55.898Z,4.21
2023-03-05T04:43:57.290Z,4.24
2023-03-05T04:46:58.681Z,4.27
2023-03-05T04:50:00.249Z,4.34
2023-03-05T04:53:01.789Z,4.36
2023-03-05T04:56:03.457Z,4.36
2023-03-05T04:59:04.923Z,4.26
2023-03-05T05:02:06.452Z,4.24
2023-03-05T05:05:09.558Z,4.19
2023-03-05T05:08:11.090Z,4.21
2023-03-05T05:11:14.337Z,4.17
2023-03-05T05:14:15.757Z,4.13
2023-03-05T05:17:17.158Z,4.15
2023-03-05T05:20:18.717Z,4.10
2023-03-05T05:23:20.137Z,4.06
2023-03-05T05:26:21.582Z,4.04
2023-03-05T05:29:23.260Z,4.05
2023-03-05T05:32:25.456Z,4.02
2023-03-05T05:35:27.349Z,4.05
2023-03-05T05:38:28.795Z,4.06
2023-03-05T05:41:30.303Z,4.19
2023-03-05T05:44:33.426Z,4.31
2023-03-05T05:47:34.816Z,4.31
2023-03-05T05:50:38.779Z,4.24
2023-03-05T05:53:41.103Z,4.22
2023-03-05T05:56:42.543Z,4.21
2023-03-05T05:59:44.126Z,4.23
2023-03-05T06:02:45.643Z,4.21
2023-03-05T06:05:47.621Z,4.22
2023-03-05T06:08:50.037Z,4.20
2023-03-05T06:11:51.516Z,4.23
2023-03-05T06:14:53.805Z,4.19
2023-03-05T06:17:55.207Z,4.19
2023-03-05T06:20:58.682Z,4.16
2023-03-05T06:24:00.638Z,4.13
2023-03-05T06:27:02.039Z,4.13
2023-03-05T06:30:04.804Z,4.15
2023-03-05T06:33:06.859Z,4.11
2023-03-05T06:36:11.434Z,4.15
2023-03-05T06:39:12.879Z,4.10
2023-03-05T06:42:14.296Z,4.08
2023-03-05T06:45:15.687Z,4.13
2023-03-05T06:48:17.086Z,4.12
2023-03-05T06:51:24.697Z,4.16
2023-03-05T06:54:26.120Z,4.16
2023-03-05T06:57:27.508Z,4.08
2023-03-05T07:00:30.638Z,4.07
2023-03-05T07:03:32.077Z,4.15
2023-03-05T07:06:36.021Z,4.13
2023-03-05T07:09:42.789Z,4.06
2023-03-05T07:12:44.176Z,4.07
2023-03-05T07:15:45.669Z,4.02
2023-03-05T07:18:48.028Z,4.01
2023-03-05T07:21:49.424Z,4.05
2023-03-05T07:24:51.031Z,4.12
2023-03-05T07:27:52.406Z,4.23
2023-03-05T07:31:02.651Z,4.18
2023-03-05T07:34:04.294Z,4.20
2023-03-05T07:37:05.692Z,4.19
2023-03-05T07:40:07.828Z,4.14
2023-03-05T07:43:09.230Z,4.15
2023-03-05T07:46:13.848Z,4.20
2023-03-05T07:49:15.340Z,4.24
2023-03-05T07:52:17.520Z,4.33
2023-03-05T07:55:18.946Z,4.37
2023-03-05T07:58:20.379Z,4.31
2023-03-05T08:01:22.052Z,4.39
2023-03-05T08:04:23.750Z,4.42
2023-03-05T08:07:25.231Z,4.47
2023-03-05T08:10:26.795Z,4.54
2023-03-05T08:13:28.205Z,4.56
2023-03-05T08:16:29.798Z,4.58
2023-03-05T08:19:32.708Z,4.65
2023-03-05T08:22:34.984Z,4.76
2023-03-05T08:25:36.451Z,4.82
2023-03-05T08:28:38.025Z,4.86
2023-03-05T08:31:44.612Z,4.95
2023-03-05T08:34:46.599Z,5.13
2023-03-05T08:37:48.419Z,5.17
2023-03-05T08:40:49.820Z,5.21
2023-03-05T08:43:51.209Z,5.24
2023-03-05T08:46:52.681Z,5.27
2023-03-05T08:49:58.331Z,5.44
2023-03-05T08:53:00.106Z,5.51
2023-03-05T08:56:01.765Z,5.42
2023-03-05T08:59:04.292Z,5.22
2023-03-05T09:02:05.849Z,5.31
2023-03-05T09:05:07.808Z,5.40
2023-03-05T09:08:09.460Z,5.54
2023-03-05T09:11:13.076Z,5.60
2023-03-05T09:14:14.489Z,5.52
2023-03-05T09:17:15.885Z,5.58
2023-03-05T09:20:17.598Z,5.49
2023-03-05T09:23:19.346Z,5.61
2023-03-05T09:26:21.163Z,5.69
2023-03-05T09:29:22.706Z,5.71
2023-03-05T09:32:24.093Z,5.68
2023-03-05T09:35:25.495Z,5.66
2023-03-05T09:38:27.553Z,5.62
2023-03-05T09:41:52.021Z,5.65
2023-03-05T09:45:11.997Z,5.57
2023-03-05T09:48:24.420Z,5.59
2023-03-05T09:51:31.364Z,5.66
2023-03-05T09:54:40.762Z,5.55
2023-03-05T09:57:46.792Z,5.59
2023-03-05T10:00:56.865Z,5.62
2023-03-05T10:04:09.124Z,5.60
2023-03-05T10:07:29.830Z,5.56
2023-03-05T10:10:41.060Z,5.58
2023-03-05T10:13:45.243Z,5.64
2023-03-05T10:16:59.735Z,5.56
2023-03-05T10:20:25.482Z,5.49
2023-03-05T10:23:31.505Z,5.56
2023-03-05T10:26:44.338Z,5.58
2023-03-05T10:29:59.564Z,5.60
2023-03-05T10:33:14.738Z,5.69
2023-03-05T10:36:38.827Z,5.65
2023-03-05T10:39:49.950Z,5.78
2023-03-05T10:43:04.778Z,5.89
2023-03-05T10:46:15.870Z,6.04
2023-03-05T10:49:25.059Z,5.99
2023-03-05T10:52:37.978Z,5.98
2023-03-05T10:55:40.023Z,5.95
2023-03-05T10:58:41.431Z,5.94
2023-03-05T11:02:02.336Z,5.99
2023-03-05T11:05:05.246Z,6.05
2023-03-05T11:08:27.500Z,6.11
2023-03-05T11:11:31.356Z,6.12
2023-03-05T11:14:34.688Z,6.09
2023-03-05T11:17:43.086Z,6.34
2023-03-05T11:20:45.199Z,6.10
2023-03-05T11:24:06.168Z,6.28
2023-03-05T11:27:34.927Z,6.21
2023-03-05T11:30:37.309Z,6.23
2023-03-05T11:33:38.890Z,6.40
2023-03-05T11:36:43.219Z,6.25
2023-03-05T11:39:46.089Z,6.23
2023-03-05T11:42:55.403Z,6.23
2023-03-05T11:46:03.207Z,6.09
2023-03-05T11:49:07.039Z,6.06
2023-03-05T11:52:15.285Z,6.11
2023-03-05T11:55:28.160Z,6.22
2023-03-05T11:58:33.033Z,6.17
2023-03-05T12:01:43.849Z,6.26
2023-03-05T12:04:46.286Z,6.22
2023-03-05T12:07:52.618Z,6.10
2023-03-05T12:10:54.318Z,6.28
2023-03-05T12:14:20.171Z,6.40
2023-03-05T12:17:28.591Z,6.47
2023-03-05T12:20:47.798Z,6.48
2023-03-05T12:23:55.287Z,6.56
2023-03-05T12:27:07.797Z,6.58
2023-03-05T12:30:35.168Z,6.36
2023-03-05T12:33:39.617Z,6.18
2023-03-05T12:36:41.612Z,6.31
2023-03-05T12:39:47.622Z,6.48
2023-03-05T12:42:53.707Z,6.65
2023-03-05T12:46:29.303Z,6.76
2023-03-05T12:49:38.764Z,6.92
2023-03-05T12:52:45.603Z,6.74
2023-03-05T12:56:16.465Z,6.82
2023-03-05T12:59:22.342Z,6.84
2023-03-05T13:02:45.207Z,6.76
2023-03-05T13:05:53.181Z,6.71
2023-03-05T13:09:03.697Z,6.82
2023-03-05T13:12:13.270Z,6.77
2023-03-05T13:15:15.493Z,6.77
2023-03-05T13:18:25.849Z,6.71
2023-03-05T13:21:30.601Z,6.77
2023-03-05T13:24:32.049Z,6.73
2023-03-05T13:27:34.303Z,6.68
2023-03-05T13:30:35.782Z,6.72
2023-03-05T13:33:37.449Z,6.71
2023-03-05T13:36:39.961Z,6.63
2023-03-05T13:39:47.800Z,6.61
2023-03-05T13:42:50.070Z,6.53
2023-03-05T13:45:56.394Z,6.52
2023-03-05T13:49:17.197Z,6.53
2023-03-05T13:52:36.342Z,6.47
2023-03-05T13:55:38.621Z,6.43
2023-03-05T13:58:40.479Z,6.34
2023-03-05T14:01:44.416Z,6.27
2023-03-05T14:04:47.208Z,6.31
2023-03-05T14:07:50.850Z,6.29
2023-03-05T14:10:57.147Z,6.24
2023-03-05T14:14:06.566Z,6.25
2023-03-05T14:17:36.332Z,6.40
2023-03-05T14:20:39.913Z,6.34
2023-03-05T14:23:46.965Z,6.26
2023-03-05T14:26:56.395Z,6.25
2023-03-05T14:29:57.875Z,6.19
2023-03-05T14:33:00.560Z,6.15
2023-03-05T14:36:03.088Z,6.25
2023-03-05T14:39:04.990Z,6.46
2023-03-05T14:42:26.883Z,6.32
2023-03-05T14:45:31.153Z,6.30
2023-03-05T14:48:32.592Z,6.24
2023-03-05T14:51:39.040Z,6.19
2023-03-05T14:54:40.429Z,6.17
2023-03-05T14:57:42.105Z,6.16
2023-03-05T15:00:44.087Z,6.13
2023-03-05T15:03:45.513Z,6.15
2023-03-05T15:06:50.782Z,6.23
2023-03-05T15:09:52.380Z,6.19
2023-03-05T15:12:53.855Z,6.20
2023-03-05T15:15:55.695Z,6.19
2023-03-05T15:18:57.348Z,6.28
2023-03-05T15:21:58.869Z,6.37
2023-03-05T15:25:00.344Z,6.31
2023-03-05T15:28:02.109Z,6.35
2023-03-05T15:31:05.060Z,6.50
2023-03-05T15:34:06.823Z,6.35
2023-03-05T15:37:08.313Z,6.33
2023-03-05T15:40:10.336Z,6.27
2023-03-05T15:43:11.765Z,6.31
2023-03-05T15:46:13.271Z,6.21
2023-03-05T15:49:15.219Z,6.30
2023-03-05T15:52:16.666Z,6.54
2023-03-05T15:55:20.971Z,6.47
2023-03-05T15:58:22.463Z,6.58
2023-03-05T16:01:23.903Z,6.62
2023-03-05T16:04:25.372Z,6.60
2023-03-05T16:07:27.700Z,6.70
2023-03-05T16:10:30.400Z,6.70
2023-03-05T16:13:32.778Z,6.70
2023-03-05T16:16:36.243Z,6.70
2023-03-05T16:19:42.450Z,6.60
2023-03-05T16:22:44.438Z,6.58
2023-03-05T16:25:46.192Z,6.55
2023-03-05T16:28:47.577Z,6.44
2023-03-05T16:31:49.170Z,6.38
2023-03-05T16:34:50.656Z,6.43
2023-03-05T16:37:52.100Z,6.46
2023-03-05T16:41:07.205Z,6.36
2023-03-05T16:44:09.325Z,6.42
2023-03-05T16:47:12.182Z,6.48
2023-03-05T16:50:13.632Z,6.51
2023-03-05T16:53:15.031Z,6.51
2023-03-05T16:56:16.711Z,6.44
2023-03-05T16:59:18.142Z,6.39
2023-03-05T17:02:19.568Z,6.49
2023-03-05T17:05:20.995Z,6.54
2023-03-05T17:08:24.262Z,6.60
2023-03-05T17:11:25.845Z,6.57
2023-03-05T17:14:27.445Z,6.58
2023-03-05T17:17:28.913Z,6.56
2023-03-05T17:20:30.607Z,6.50
2023-03-05T17:23:36.972Z,6.48
2023-03-05T17:26:38.384Z,6.48
2023-03-05T17:29:39.911Z,6.48
2023-03-05T17:32:41.574Z,6.48
2023-03-05T17:35:47.191Z,6.47
2023-03-05T17:38:49.577Z,6.47
2023-03-05T17:41:51.002Z,6.45
2023-03-05T17:44:52.495Z,6.43
2023-03-05T17:47:54.260Z,6.40
2023-03-05T17:50:55.988Z,6.39
2023-03-05T17:53:58.619Z,6.34
2023-03-05T17:57:00.731Z,6.30
2023-03-05T18:00:03.541Z,6.27
2023-03-05T18:03:13.501Z,6.28
2023-03-05T18:06:15.829Z,6.26
2023-03-05T18:09:17.450Z,6.28
2023-03-05T18:12:18.826Z,6.27
2023-03-05T18:15:22.280Z,6.27
2023-03-05T18:18:23.687Z,6.26
2023-03-05T18:21:27.847Z,6.21
2023-03-05T18:24:29.230Z,6.19
2023-03-05T18:27:31.055Z,6.19
2023-03-05T18:30:33.218Z,6.17
2023-03-05T18:33:35.074Z,6.11
2023-03-05T18:36:36.515Z,5.99
2023-03-05T18:39:38.168Z,5.90
2023-03-05T18:42:39.554Z,5.93
2023-03-05T18:45:40.996Z,5.97
2023-03-05T18:48:42.732Z,5.93
2023-03-05T18:51:45.606Z,5.87
2023-03-05T18:54:47.098Z,5.89
2023-03-05T18:57:49.236Z,5.79
2023-03-05T19:00:51.802Z,5.74
2023-03-05T19:03:53.513Z,5.68
2023-03-05T19:06:54.913Z,5.67
2023-03-05T19:09:59.599Z,5.72
2023-03-05T19:13:18.569Z,5.71
2023-03-05T19:16:30.294Z,5.76
2023-03-05T19:19:31.692Z,5.77
2023-03-05T19:22:33.730Z,5.81
2023-03-05T19:25:36.554Z,5.81
2023-03-05T19:28:38.027Z,5.80
2023-03-05T19:31:39.533Z,5.81
2023-03-05T19:34:41.899Z,5.81
2023-03-05T19:37:45.772Z,5.80
2023-03-05T19:40:47.492Z,5.77
2023-03-05T19:43:50.032Z,5.72
2023-03-05T19:46:51.474Z,5.71
2023-03-05T19:49:52.880Z,5.66
2023-03-05T19:52:54.351Z,5.64
2023-03-05T19:55:56.449Z,5.63
2023-03-05T19:58:57.876Z,5.59
2023-03-05T20:01:59.398Z,5.67
2023-03-05T20:05:00.944Z,5.61
2023-03-05T20:08:02.686Z,5.53
2023-03-05T20:11:04.701Z,5.44
2023-03-05T20:14:07.297Z,5.36
2023-03-05T20:17:08.756Z,5.32
2023-03-05T20:20:13.097Z,5.33
2023-03-05T20:23:14.518Z,5.36
2023-03-05T20:26:16.432Z,5.41
2023-03-05T20:29:18.691Z,5.38
2023-03-05T20:32:20.295Z,5.39
2023-03-05T20:35:21.844Z,5.40
2023-03-05T20:38:25.277Z,5.38
2023-03-05T20:41:26.876Z,5.36
2023-03-05T20:44:28.349Z,5.39
2023-03-05T20:47:40.523Z,5.40
2023-03-05T20:50:42.136Z,5.40
2023-03-05T20:53:43.564Z,5.37
2023-03-05T20:56:45.161Z,5.33
2023-03-05T20:59:46.615Z,5.25
2023-03-05T21:02:50.988Z,5.17
2023-03-05T21:05:55.644Z,5.17
2023-03-05T21:08:57.197Z,5.20
2023-03-05T21:11:58.574Z,5.17
2023-03-05T21:15:00.282Z,5.18
2023-03-05T21:18:01.895Z,5.27
2023-03-05T21:21:03.753Z,5.29
2023-03-05T21:24:05.549Z,5.30
2023-03-05T21:27:06.938Z,5.28
2023-03-05T21:30:11.152Z,5.22
2023-03-05T21:33:22.969Z,5.23
2023-03-05T21:36:24.480Z,5.22
2023-03-05T21:39:25.876Z,5.16
2023-03-05T21:42:27.310Z,5.02
2023-03-05T21:45:30.186Z,5.03
2023-03-05T21:48:32.124Z,5.03
2023-03-05T21:51:40.485Z,5.06
2023-03-05T21:54:42.836Z,5.14
2023-03-05T21:57:45.120Z,5.19
2023-03-05T22:00:46.520Z,5.19
2023-03-05T22:03:49.359Z,5.18
2023-03-05T22:06:50.798Z,5.19
2023-03-05T22:09:56.360Z,5.19
2023-03-05T22:13:11.456Z,5.20
2023-03-05T22:16:21.310Z,5.21
2023-03-05T22:19:22.745Z,5.23
2023-03-05T22:22:24.126Z,5.19
2023-03-05T22:25:25.499Z,5.17
2023-03-05T22:28:27.592Z,5.11
2023-03-05T22:31:30.328Z,5.05
2023-03-05T22:34:31.738Z,5.01
2023-03-05T22:37:33.460Z,4.97
2023-03-05T22:40:36.889Z,5.00
2023-03-05T22:43:38.813Z,5.10
2023-03-05T22:46:40.244Z,5.01
2023-03-05T22:49:41.739Z,4.92
2023-03-05T22:52:43.286Z,4.94
2023-03-05T22:55:44.756Z,4.98
2023-03-05T22:58:46.196Z,4.97
2023-03-05T23:01:47.637Z,5.05
2023-03-05T23:04:53.195Z,4.97
2023-03-05T23:07:54.674Z,4.96
2023-03-05T23:10:56.090Z,4.97
2023-03-05T23:13:57.476Z,4.94
2023-03-05T23:16:58.862Z,4.90
2023-03-05T23:20:00.277Z,4.89
2023-03-05T23:23:02.148Z,4.90
2023-03-05T23:26:03.530Z,4.84
2023-03-05T23:29:04.929Z,4.83
2023-03-05T23:32:06.515Z,4.88
2023-03-05T23:35:10.494Z,4.87
2023-03-05T23:38:13.894Z,4.95
2023-03-05T23:41:15.353Z,4.90
2023-03-05T23:44:16.797Z,4.84
2023-03-05T23:47:18.176Z,4.82
2023-03-05T23:50:29.079Z,4.85
2023-03-05T23:53:32.740Z,4.83
2023-03-05T23:56:34.120Z,4.81
2023-03-05T23:59:36.010Z,4.77
